Time;durP1;ratioP1;P1;durP2;ratioP2;P2;SDS_P1;SDS_P2;PMS_P1;PMS_P2;Temp;Humidity;BMP_temperature;BMP_pressure;BME280_temperature;BME280_humidity;BME280_pressure;Samples;Min_cycle;Max_cycle;Signal;HPM_P1;HPM_P2
2023/09/20 00:01:50;;;;;;;2.58;1.30;;;15.30;99.90;;;;;;5045627;28;20029;-63
2023/09/20 00:04:16;;;;;;;4.97;1.50;;;15.20;99.90;;;;;;5043693;28;21199;-66
2023/09/20 00:06:42;;;;;;;4.72;1.40;;;15.20;99.90;;;;;;5044667;28;20041;-65
2023/09/20 00:09:08;;;;;;;4.15;1.52;;;15.20;99.90;;;;;;5045935;28;20114;-65
2023/09/20 00:11:35;;;;;;;6.95;2.50;;;15.20;99.90;;;;;;5043006;28;20031;-67
2023/09/20 00:14:00;;;;;;;4.95;1.67;;;15.20;99.90;;;;;;5044022;28;20037;-66
2023/09/20 00:16:29;;;;;;;6.13;1.98;;;15.10;99.90;;;;;;5044782;28;20048;-65
2023/09/20 00:18:54;;;;;;;5.70;1.63;;;15.20;99.90;;;;;;5044941;28;20025;-66
2023/09/20 00:21:20;;;;;;;5.40;2.10;;;15.20;99.90;;;;;;5043283;28;20523;-65
2023/09/20 00:23:46;;;;;;;5.70;1.35;;;15.20;99.90;;;;;;5047115;28;20086;-65
2023/09/20 00:26:13;;;;;;;8.18;2.28;;;15.20;99.90;;;;;;5030646;28;20422;-63
2023/09/20 00:28:39;;;;;;;3.33;1.20;;;15.10;99.90;;;;;;5030329;28;20047;-65
2023/09/20 00:31:05;;;;;;;9.07;1.65;;;15.10;99.90;;;;;;5044850;28;20382;-64
2023/09/20 00:33:31;;;;;;;7.97;2.63;;;15.00;99.90;;;;;;5045495;28;20168;-65
2023/09/20 00:35:57;;;;;;;5.18;1.60;;;15.00;99.90;;;;;;5045425;28;20116;-66
2023/09/20 00:38:24;;;;;;;4.18;1.35;;;14.90;99.90;;;;;;5045674;28;20029;-65
2023/09/20 00:40:50;;;;;;;4.43;1.30;;;14.80;99.90;;;;;;5043903;28;20029;-65
2023/09/20 00:43:23;;;;;;;2.22;1.10;;;14.70;99.90;;;;;;5045543;28;20086;-66
2023/09/20 00:45:48;;;;;;;3.65;2.20;;;14.60;99.90;;;;;;5046460;28;20040;-65
2023/09/20 00:48:15;;;;;;;7.32;1.55;;;14.60;99.90;;;;;;5045225;28;20090;-65
2023/09/20 00:50:42;;;;;;;2.58;1.40;;;14.60;99.90;;;;;;5045308;28;20467;-65
2023/09/20 00:53:12;;;;;;;2.47;1.20;;;14.50;99.90;;;;;;5045873;28;20498;-64
2023/09/20 00:55:38;;;;;;;5.35;1.52;;;14.50;99.90;;;;;;5046280;28;20513;-66
2023/09/20 00:58:07;;;;;;;5.57;1.80;;;14.50;99.90;;;;;;5044673;28;20033;-63
2023/09/20 01:00:36;;;;;;;3.92;1.67;;;14.50;99.90;;;;;;5044058;28;20017;-66
2023/09/20 01:03:02;;;;;;;6.00;1.30;;;14.50;99.90;;;;;;5045615;28;20057;-64
2023/09/20 01:05:30;;;;;;;4.70;1.60;;;14.60;99.90;;;;;;5043566;28;20036;-67
2023/09/20 01:07:56;;;;;;;5.18;1.95;;;14.60;99.90;;;;;;5045356;28;20033;-66
2023/09/20 01:10:26;;;;;;;6.47;2.05;;;14.70;99.90;;;;;;5044572;28;20029;-63
2023/09/20 01:12:54;;;;;;;10.43;2.00;;;14.80;99.90;;;;;;5059599;28;20786;-66
2023/09/20 01:15:20;;;;;;;4.47;1.75;;;15.00;99.90;;;;;;5045274;28;20029;-64
2023/09/20 01:17:50;;;;;;;6.28;1.60;;;15.10;99.90;;;;;;5044409;28;20024;-67
2023/09/20 01:20:20;;;;;;;5.18;1.70;;;15.20;99.90;;;;;;5043749;28;20040;-66
2023/09/20 01:22:47;;;;;;;4.63;1.58;;;15.30;99.90;;;;;;5045910;28;20474;-65
2023/09/20 01:25:46;;;;;;;3.55;1.40;;;15.40;99.90;;;;;;5020797;28;20060;-65
2023/09/20 01:28:12;;;;;;;8.20;1.38;;;15.40;99.90;;;;;;5052902;28;20037;-65
2023/09/20 01:30:41;;;;;;;3.28;1.58;;;15.30;99.90;;;;;;5044970;28;20461;-68
2023/09/20 01:33:08;;;;;;;6.25;1.77;;;15.20;99.90;;;;;;5044592;28;20020;-67
2023/09/20 01:35:35;;;;;;;5.68;1.85;;;15.10;99.90;;;;;;5044813;28;20032;-65
2023/09/20 01:38:10;;;;;;;8.93;2.42;;;15.10;99.90;;;;;;5042793;28;20071;-65
2023/09/20 01:40:35;;;;;;;4.47;1.70;;;15.00;99.90;;;;;;5040590;28;20039;-66
2023/09/20 01:43:08;;;;;;;3.60;1.40;;;14.90;99.90;;;;;;5044075;28;20029;-66
2023/09/20 01:45:36;;;;;;;5.90;1.85;;;14.90;99.90;;;;;;5045197;28;20021;-64
2023/09/20 01:48:06;;;;;;;4.25;1.50;;;14.80;99.90;;;;;;5043429;28;20037;-67
2023/09/20 01:50:32;;;;;;;7.65;2.00;;;14.70;99.90;;;;;;5046548;28;20410;-66
2023/09/20 01:52:59;;;;;;;7.57;1.80;;;14.70;99.90;;;;;;5043622;28;20033;-68
2023/09/20 01:55:31;;;;;;;5.03;2.28;;;14.60;99.90;;;;;;5045687;28;20566;-65
2023/09/20 01:57:59;;;;;;;7.40;1.67;;;14.60;99.90;;;;;;5043537;28;20029;-65
2023/09/20 02:00:39;;;;;;;9.77;1.70;;;14.60;99.90;;;;;;5043156;28;20025;-66
2023/09/20 02:03:08;;;;;;;4.85;2.22;;;14.60;99.90;;;;;;5043913;28;20094;-65
2023/09/20 02:05:36;;;;;;;8.00;2.20;;;14.60;99.90;;;;;;5043563;28;20432;-65
2023/09/20 02:08:02;;;;;;;5.05;1.75;;;14.50;99.90;;;;;;5044224;28;20394;-65
2023/09/20 02:10:28;;;;;;;5.57;1.90;;;14.50;99.90;;;;;;5041373;28;20103;-65
2023/09/20 02:12:56;;;;;;;4.25;2.05;;;14.50;99.90;;;;;;5044303;28;20490;-66
2023/09/20 02:15:25;;;;;;;10.13;2.05;;;14.50;99.90;;;;;;5044816;28;20064;-65
2023/09/20 02:17:51;;;;;;;8.52;1.80;;;14.50;99.90;;;;;;5043465;28;20130;-65
2023/09/20 02:20:20;;;;;;;6.75;1.77;;;14.50;99.90;;;;;;5042150;28;20750;-66
2023/09/20 02:22:50;;;;;;;4.80;2.30;;;14.50;99.90;;;;;;5043648;28;20486;-67
2023/09/20 02:25:20;;;;;;;4.05;2.08;;;14.40;99.90;;;;;;5018045;28;20057;-65
2023/09/20 02:27:47;;;;;;;5.15;2.17;;;14.40;99.90;;;;;;5039812;28;20035;-66
2023/09/20 02:30:19;;;;;;;7.85;2.17;;;14.40;99.90;;;;;;5044187;28;20025;-66
2023/09/20 02:32:46;;;;;;;5.95;2.42;;;14.40;99.90;;;;;;5043318;28;20036;-65
2023/09/20 02:35:12;;;;;;;7.38;1.70;;;14.50;99.90;;;;;;5038913;28;20021;-65
2023/09/20 02:37:40;;;;;;;5.57;1.67;;;14.50;99.90;;;;;;5040450;28;20056;-67
2023/09/20 02:40:19;;;;;;;7.03;1.60;;;14.60;99.90;;;;;;5042852;28;20075;-65
2023/09/20 02:42:52;;;;;;;6.00;1.85;;;14.70;99.90;;;;;;5044210;28;20033;-66
2023/09/20 02:45:24;;;;;;;5.22;1.60;;;14.80;99.90;;;;;;5045381;28;20064;-61
2023/09/20 02:47:51;;;;;;;3.45;1.30;;;15.00;99.90;;;;;;5041289;28;20036;-65
2023/09/20 02:50:18;;;;;;;5.82;1.35;;;15.00;99.90;;;;;;5041642;28;21281;-65
2023/09/20 02:52:45;;;;;;;9.77;2.10;;;15.10;99.90;;;;;;5042393;28;20090;-68
2023/09/20 02:55:17;;;;;;;2.47;1.75;;;15.20;99.90;;;;;;5043190;28;20120;-63
2023/09/20 02:57:46;;;;;;;5.78;1.73;;;15.20;99.90;;;;;;5044060;28;20033;-67
2023/09/20 03:00:15;;;;;;;4.10;1.90;;;15.30;99.90;;;;;;5043431;28;20166;-67
2023/09/20 03:02:51;;;;;;;2.17;1.60;;;15.30;99.90;;;;;;5044249;28;20025;-65
2023/09/20 03:05:21;;;;;;;2.60;1.52;;;15.40;99.90;;;;;;5040887;28;20083;-65
2023/09/20 03:07:48;;;;;;;6.90;2.20;;;15.40;99.90;;;;;;5044602;28;20402;-68
2023/09/20 03:10:15;;;;;;;4.78;1.98;;;15.40;99.90;;;;;;5041701;28;20032;-66
2023/09/20 03:12:43;;;;;;;3.83;1.90;;;15.30;99.90;;;;;;5039850;28;20074;-67
2023/09/20 03:15:11;;;;;;;4.82;1.70;;;15.30;99.90;;;;;;5042982;28;20386;-66
2023/09/20 03:17:39;;;;;;;7.40;2.15;;;15.20;99.90;;;;;;5043154;28;20028;-65
2023/09/20 03:20:12;;;;;;;5.22;1.98;;;15.10;99.90;;;;;;5041943;28;20116;-65
2023/09/20 03:22:38;;;;;;;5.25;1.70;;;15.00;99.90;;;;;;5043915;28;20081;-65
2023/09/20 03:25:04;;;;;;;5.78;1.95;;;14.90;99.90;;;;;;5034568;28;20029;-65
2023/09/20 03:27:31;;;;;;;7.28;1.70;;;14.90;99.90;;;;;;5041265;28;20092;-65
2023/09/20 03:29:57;;;;;;;5.05;1.52;;;14.90;99.90;;;;;;5041914;28;20029;-64
2023/09/20 03:32:23;;;;;;;5.22;1.73;;;14.80;99.90;;;;;;5043794;28;20152;-65
2023/09/20 03:34:49;;;;;;;9.00;2.10;;;14.80;99.90;;;;;;5042544;28;20057;-65
2023/09/20 03:37:16;;;;;;;5.43;2.03;;;14.70;99.90;;;;;;5042929;28;20024;-65
2023/09/20 03:39:42;;;;;;;12.82;3.97;;;14.70;99.90;;;;;;5041695;28;20115;-65
2023/09/20 03:42:11;;;;;;;3.97;1.45;;;14.70;99.90;;;;;;5043515;28;20041;-65
2023/09/20 03:44:38;;;;;;;4.25;2.17;;;14.60;99.90;;;;;;5044318;28;20444;-67
2023/09/20 03:47:05;;;;;;;6.40;1.63;;;14.60;99.90;;;;;;5043245;28;20029;-65
2023/09/20 03:49:31;;;;;;;4.78;1.80;;;14.60;99.90;;;;;;5045066;28;20072;-65
2023/09/20 03:51:59;;;;;;;4.72;1.98;;;14.50;99.90;;;;;;5046356;28;20494;-65
2023/09/20 03:54:26;;;;;;;6.57;2.15;;;14.50;99.90;;;;;;5046226;28;20033;-66
2023/09/20 03:56:52;;;;;;;2.60;1.42;;;14.50;99.90;;;;;;5048040;28;20024;-64
2023/09/20 03:59:18;;;;;;;5.20;1.77;;;14.40;99.90;;;;;;5047307;28;20032;-66
2023/09/20 04:01:44;;;;;;;7.10;2.42;;;14.30;99.90;;;;;;5045796;28;20103;-65
2023/09/20 04:04:10;;;;;;;4.50;2.00;;;14.30;99.90;;;;;;5046265;28;20029;-65
2023/09/20 04:06:35;;;;;;;3.58;2.17;;;14.30;99.90;;;;;;5045987;28;20086;-65
2023/09/20 04:09:09;;;;;;;8.00;2.15;;;14.30;99.90;;;;;;5044437;28;20430;-64
2023/09/20 04:11:40;;;;;;;8.77;2.58;;;14.30;99.90;;;;;;5046751;28;20593;-65
2023/09/20 04:14:07;;;;;;;6.43;2.35;;;14.30;99.90;;;;;;5045633;28;20493;-61
2023/09/20 04:16:35;;;;;;;3.88;1.67;;;14.30;99.90;;;;;;5043969;28;20028;-65
2023/09/20 04:19:01;;;;;;;5.25;1.70;;;14.30;99.90;;;;;;5045806;28;20044;-64
2023/09/20 04:21:27;;;;;;;5.90;2.05;;;14.30;99.90;;;;;;5046050;28;20386;-65
2023/09/20 04:23:52;;;;;;;6.70;2.17;;;14.30;99.90;;;;;;5046323;28;20402;-67
2023/09/20 04:26:18;;;;;;;3.88;1.88;;;14.30;99.90;;;;;;5022096;28;20052;-64
2023/09/20 04:28:43;;;;;;;5.20;2.33;;;14.20;99.90;;;;;;5061415;28;20029;-66
2023/09/20 04:31:09;;;;;;;5.43;2.00;;;14.20;99.90;;;;;;5047172;28;20029;-66
2023/09/20 04:33:36;;;;;;;6.10;2.90;;;14.20;99.90;;;;;;5046787;28;20033;-65
2023/09/20 04:36:04;;;;;;;5.78;2.75;;;14.20;99.90;;;;;;5043060;28;20073;-65
2023/09/20 04:38:30;;;;;;;6.35;2.13;;;14.20;99.90;;;;;;5046106;28;20500;-65
2023/09/20 04:40:56;;;;;;;4.38;2.53;;;14.10;99.90;;;;;;5041937;28;20037;-66
2023/09/20 04:43:22;;;;;;;3.47;1.85;;;14.10;99.90;;;;;;5046187;28;20032;-66
2023/09/20 04:45:48;;;;;;;5.85;2.40;;;14.10;99.90;;;;;;5046695;28;20048;-65
2023/09/20 04:48:13;;;;;;;4.97;1.90;;;14.10;99.90;;;;;;5045197;28;20025;-64
2023/09/20 04:50:39;;;;;;;5.25;1.98;;;14.10;99.90;;;;;;5044398;28;20043;-65
2023/09/20 04:53:04;;;;;;;5.60;1.88;;;14.10;99.90;;;;;;5046539;28;20475;-65
2023/09/20 04:55:33;;;;;;;6.15;1.67;;;14.10;99.90;;;;;;5046821;28;20066;-65
2023/09/20 04:58:00;;;;;;;4.15;1.52;;;14.00;99.90;;;;;;5043826;28;20024;-65
2023/09/20 05:00:33;;;;;;;4.28;1.92;;;14.00;99.90;;;;;;5044520;28;20394;-65
2023/09/20 05:03:02;;;;;;;3.88;2.25;;;14.00;99.90;;;;;;5045761;28;20402;-65
2023/09/20 05:05:27;;;;;;;5.10;2.53;;;14.00;99.90;;;;;;5044358;28;20040;-63
2023/09/20 05:07:53;;;;;;;3.40;1.75;;;14.00;99.90;;;;;;5044146;28;20041;-65
2023/09/20 05:10:19;;;;;;;4.80;1.92;;;13.90;99.90;;;;;;5045189;28;20035;-64
2023/09/20 05:12:47;;;;;;;3.90;1.60;;;13.90;99.90;;;;;;5042527;28;20563;-64
2023/09/20 05:15:13;;;;;;;12.60;2.00;;;13.90;99.90;;;;;;5044730;28;20025;-65
2023/09/20 05:17:39;;;;;;;5.97;2.20;;;14.00;99.90;;;;;;5045426;28;20025;-65
2023/09/20 05:20:06;;;;;;;7.85;1.80;;;14.00;99.90;;;;;;5044298;28;20029;-64
2023/09/20 05:22:33;;;;;;;1.75;1.52;;;14.00;99.90;;;;;;5060370;28;20041;-65
2023/09/20 05:24:58;;;;;;;3.55;2.08;;;14.10;99.90;;;;;;5043788;28;20033;-65
2023/09/20 05:27:24;;;;;;;7.85;3.03;;;14.10;99.90;;;;;;5022357;28;20049;-65
2023/09/20 05:29:53;;;;;;;6.47;1.92;;;14.10;99.90;;;;;;5045595;28;20602;-65
2023/09/20 05:32:19;;;;;;;3.35;1.65;;;14.20;99.90;;;;;;5042685;28;20028;-65
2023/09/20 05:34:46;;;;;;;4.00;1.73;;;14.20;99.90;;;;;;5043850;28;20048;-64
2023/09/20 05:37:12;;;;;;;4.97;2.50;;;14.30;99.90;;;;;;5045183;28;20025;-68
2023/09/20 05:39:38;;;;;;;6.35;1.88;;;14.40;99.90;;;;;;5043945;28;20047;-66
2023/09/20 05:42:05;;;;;;;4.57;1.40;;;14.50;99.90;;;;;;5043614;28;20077;-64
2023/09/20 05:44:31;;;;;;;7.28;1.80;;;14.60;99.90;;;;;;5043526;28;20078;-66
2023/09/20 05:46:58;;;;;;;4.53;1.67;;;14.70;99.90;;;;;;5042101;28;20782;-67
2023/09/20 05:49:24;;;;;;;6.07;1.65;;;14.80;99.90;;;;;;5043811;28;20067;-65
2023/09/20 05:51:52;;;;;;;3.13;1.70;;;14.90;99.90;;;;;;5044367;28;20905;-65
2023/09/20 05:54:21;;;;;;;3.78;1.60;;;15.00;99.90;;;;;;5043464;28;20041;-65
2023/09/20 05:56:48;;;;;;;4.35;1.75;;;15.10;99.90;;;;;;5045361;28;20024;-65
2023/09/20 05:59:14;;;;;;;4.20;1.50;;;15.20;99.90;;;;;;5044950;28;20023;-66
2023/09/20 06:01:40;;;;;;;2.63;1.75;;;15.30;99.90;;;;;;5039858;28;20025;-65
2023/09/20 06:04:07;;;;;;;3.58;1.67;;;15.40;99.90;;;;;;5040347;28;20036;-60
2023/09/20 06:06:33;;;;;;;3.35;2.00;;;15.50;99.90;;;;;;5044425;28;20017;-67
2023/09/20 06:08:59;;;;;;;2.45;1.52;;;15.60;99.90;;;;;;5042293;28;20044;-67
2023/09/20 06:11:25;;;;;;;3.88;1.38;;;15.70;99.90;;;;;;5041347;28;20036;-65
2023/09/20 06:13:51;;;;;;;6.85;2.67;;;15.80;99.90;;;;;;5042833;28;20060;-66
2023/09/20 06:16:17;;;;;;;4.05;1.63;;;15.90;99.90;;;;;;5043121;28;20021;-65
2023/09/20 06:18:43;;;;;;;3.97;1.42;;;16.00;99.90;;;;;;5042534;28;20497;-66
2023/09/20 06:21:09;;;;;;;3.55;1.60;;;16.20;99.90;;;;;;5043116;28;20040;-65
2023/09/20 06:23:35;;;;;;;4.65;1.63;;;16.30;99.90;;;;;;5044598;28;20025;-64
2023/09/20 06:26:05;;;;;;;3.80;1.70;;;16.40;99.90;;;;;;5025346;28;20136;-65
2023/09/20 06:28:32;;;;;;;3.72;1.63;;;16.50;99.90;;;;;;5042926;28;20040;-64
2023/09/20 06:30:58;;;;;;;2.35;1.23;;;16.60;99.90;;;;;;5044354;28;20028;-65
2023/09/20 06:33:23;;;;;;;3.20;1.80;;;16.60;99.90;;;;;;5043134;28;20071;-66
2023/09/20 06:35:50;;;;;;;3.50;1.85;;;16.70;99.90;;;;;;5043041;28;20660;-65
2023/09/20 06:38:15;;;;;;;2.38;1.60;;;16.80;99.90;;;;;;5044970;28;20465;-66
2023/09/20 06:40:41;;;;;;;4.10;1.60;;;16.90;99.90;;;;;;5044726;28;20063;-67
2023/09/20 06:43:07;;;;;;;3.67;1.70;;;16.90;99.90;;;;;;5047036;28;20037;-67
2023/09/20 06:45:34;;;;;;;3.20;1.60;;;17.00;99.90;;;;;;5042314;28;20033;-65
2023/09/20 06:48:00;;;;;;;6.30;1.50;;;17.00;99.90;;;;;;5043797;28;20025;-64
2023/09/20 06:50:26;;;;;;;3.58;1.60;;;17.10;99.90;;;;;;5043052;28;20099;-66
2023/09/20 06:52:53;;;;;;;7.32;1.58;;;17.10;99.90;;;;;;5042389;28;20033;-66
2023/09/20 06:55:19;;;;;;;3.88;1.30;;;17.20;99.90;;;;;;5042834;28;20689;-66
2023/09/20 06:57:48;;;;;;;5.05;1.50;;;17.10;99.90;;;;;;5042198;28;20025;-67
2023/09/20 07:00:28;;;;;;;1.70;1.30;;;17.10;99.90;;;;;;5043136;28;20110;-65
2023/09/20 07:02:55;;;;;;;3.80;1.08;;;17.10;99.90;;;;;;5042928;28;20028;-65
2023/09/20 07:05:24;;;;;;;7.57;1.30;;;17.10;99.90;;;;;;5041605;28;20021;-66
2023/09/20 07:07:49;;;;;;;1.80;1.40;;;17.00;99.90;;;;;;5044724;28;20716;-65
2023/09/20 07:10:16;;;;;;;3.83;1.27;;;17.10;99.90;;;;;;5042374;28;20041;-66
2023/09/20 07:12:42;;;;;;;8.90;1.65;;;17.20;99.90;;;;;;5041868;28;20025;-65
2023/09/20 07:15:09;;;;;;;1.70;1.02;;;17.30;99.90;;;;;;5042518;28;20040;-67
2023/09/20 07:17:35;;;;;;;3.40;1.10;;;17.30;99.90;;;;;;5041786;28;20019;-66
2023/09/20 07:20:04;;;;;;;2.78;1.33;;;17.50;99.90;;;;;;5039604;28;20037;-65
2023/09/20 07:22:30;;;;;;;4.13;1.50;;;17.60;99.90;;;;;;5040546;28;21185;-65
2023/09/20 07:24:59;;;;;;;3.20;1.00;;;17.60;99.90;;;;;;5043746;28;20025;-65
2023/09/20 07:27:24;;;;;;;3.10;1.58;;;17.70;99.90;;;;;;5031167;28;20106;-66
2023/09/20 07:29:51;;;;;;;2.08;1.05;;;17.70;99.90;;;;;;5046916;28;20537;-65
2023/09/20 07:32:17;;;;;;;9.63;1.48;;;17.70;99.90;;;;;;5046594;28;20119;-66
2023/09/20 07:34:47;;;;;;;2.15;1.08;;;17.80;99.90;;;;;;5045389;28;20244;-65
2023/09/20 07:37:12;;;;;;;3.80;1.30;;;17.90;99.90;;;;;;5046267;28;20088;-66
2023/09/20 07:39:38;;;;;;;3.92;1.35;;;18.10;99.90;;;;;;5048134;28;20456;-66
2023/09/20 07:42:05;;;;;;;4.18;1.25;;;18.20;99.90;;;;;;5046007;28;20112;-66
2023/09/20 07:44:31;;;;;;;2.85;1.27;;;18.30;99.90;;;;;;5043279;28;20039;-65
2023/09/20 07:46:57;;;;;;;4.35;1.20;;;18.30;99.90;;;;;;5046675;28;20036;-65
2023/09/20 07:49:23;;;;;;;2.28;1.13;;;18.30;99.90;;;;;;5047386;28;20036;-67
2023/09/20 07:51:50;;;;;;;4.63;1.50;;;18.30;99.90;;;;;;5047814;28;20032;-66
2023/09/20 07:54:17;;;;;;;5.53;1.55;;;18.50;99.90;;;;;;5047398;28;20044;-66
2023/09/20 07:56:43;;;;;;;3.05;1.60;;;18.60;99.90;;;;;;5048585;28;20019;-66
2023/09/20 07:59:10;;;;;;;3.65;1.30;;;18.70;99.90;;;;;;5047013;28;20040;-65
2023/09/20 08:01:37;;;;;;;3.08;1.05;;;18.90;99.90;;;;;;5042539;28;20112;-65
2023/09/20 08:04:06;;;;;;;1.98;1.05;;;18.90;99.90;;;;;;5059858;28;20116;-67
2023/09/20 08:06:36;;;;;;;5.82;1.13;;;18.90;99.90;;;;;;5047014;28;20032;-67
2023/09/20 08:09:03;;;;;;;4.68;1.00;;;18.80;99.90;;;;;;5047256;28;20029;-64
2023/09/20 08:11:29;;;;;;;3.65;1.02;;;19.10;99.90;;;;;;5045700;28;20029;-66
2023/09/20 08:13:58;;;;;;;2.50;1.15;;;19.30;99.90;;;;;;5044619;28;20494;-68
2023/09/20 08:16:24;;;;;;;12.23;1.35;;;19.40;99.90;;;;;;5046626;28;20058;-66
2023/09/20 08:19:03;;;;;;;4.65;1.20;;;19.40;99.90;;;;;;5045796;28;20040;-67
2023/09/20 08:21:29;;;;;;;4.15;1.20;;;19.40;99.90;;;;;;5046392;28;20025;-65
2023/09/20 09:00:18;;;;;;;4.45;1.05;;;21.80;99.90;;;;;;5001721;28;20048;-65
2023/09/20 09:02:43;;;;;;;;;;;22.10;99.90;;;;;;5006017;28;20036;-66
2023/09/20 09:05:11;;;;;;;2.15;1.00;;;22.20;99.90;;;;;;5002557;28;19921;-65
2023/09/20 09:07:37;;;;;;;1.67;0.90;;;22.30;99.90;;;;;;5006982;28;20120;-66
2023/09/20 09:10:03;;;;;;;4.05;1.20;;;22.30;99.90;;;;;;5005304;28;20152;-65
2023/09/20 09:12:29;;;;;;;4.70;0.95;;;22.30;99.90;;;;;;5007078;28;20515;-66
2023/09/20 09:14:55;;;;;;;3.40;1.23;;;22.40;99.90;;;;;;5005025;28;20038;-66
2023/09/20 09:17:20;;;;;;;3.22;2.13;;;22.30;99.90;;;;;;5005777;28;20033;-66
2023/09/20 09:19:46;;;;;;;3.10;1.27;;;21.90;99.90;;;;;;5004355;28;20036;-66
2023/09/20 09:22:12;;;;;;;5.80;1.13;;;21.80;99.90;;;;;;5010865;28;20053;-66
2023/09/20 09:24:47;;;;;;;3.90;1.08;;;21.80;99.90;;;;;;5005346;28;20029;-66
2023/09/20 09:27:15;;;;;;;2.85;1.38;;;21.70;99.90;;;;;;5006925;28;20494;-66
2023/09/20 09:29:42;;;;;;;3.70;0.85;;;21.60;99.90;;;;;;5046232;28;20017;-66
2023/09/20 09:32:11;;;;;;;3.25;0.80;;;21.80;99.90;;;;;;5043311;28;20021;-64
2023/09/20 09:34:41;;;;;;;2.95;1.02;;;21.90;99.90;;;;;;5045341;28;20506;-66
2023/09/20 09:37:08;;;;;;;2.28;0.82;;;22.10;99.90;;;;;;5043958;28;20025;-65
2023/09/20 09:39:36;;;;;;;1.50;0.68;;;22.40;99.90;;;;;;5046370;28;20100;-66
2023/09/20 09:42:02;;;;;;;3.95;1.20;;;22.80;99.90;;;;;;5043091;28;20060;-66
2023/09/20 09:44:28;;;;;;;4.40;0.80;;;23.30;99.90;;;;;;5040223;28;20028;-66
2023/09/20 09:46:54;;;;;;;3.67;0.80;;;23.20;99.90;;;;;;5041484;28;20036;-67
2023/09/20 09:49:20;;;;;;;1.52;0.98;;;23.50;99.90;;;;;;5042699;28;20110;-66
2023/09/20 09:51:51;;;;;;;5.60;1.38;;;23.90;99.90;;;;;;5044921;28;20123;-66
2023/09/20 09:54:21;;;;;;;1.30;0.70;;;23.80;99.90;;;;;;5042410;28;20056;-65
2023/09/20 09:56:48;;;;;;;3.15;0.93;;;23.80;99.90;;;;;;5045065;28;20021;-66
2023/09/20 09:59:14;;;;;;;2.00;0.90;;;23.70;99.90;;;;;;5044645;28;20029;-66
2023/09/20 10:01:40;;;;;;;6.78;1.15;;;23.60;99.90;;;;;;5040503;28;20133;-66
2023/09/20 10:04:10;;;;;;;2.88;1.20;;;23.50;99.90;;;;;;5045319;28;20017;-66
2023/09/20 10:07:01;;;;;;;2.75;0.77;;;23.50;99.90;;;;;;5043597;28;20036;-66
2023/09/20 10:09:35;;;;;;;4.75;1.02;;;23.80;99.90;;;;;;5042768;28;20398;-66
2023/09/20 10:12:01;;;;;;;3.97;1.15;;;24.10;99.90;;;;;;5043799;28;20482;-66
2023/09/20 10:14:27;;;;;;;2.70;0.90;;;23.90;99.90;;;;;;5044021;28;20029;-66
2023/09/20 10:16:54;;;;;;;3.70;1.00;;;23.90;99.90;;;;;;5042642;28;20032;-65
2023/09/20 10:19:20;;;;;;;3.95;1.10;;;23.10;99.90;;;;;;5042854;28;20055;-66
2023/09/20 10:22:09;;;;;;;9.55;1.20;;;23.10;99.90;;;;;;5043144;28;20027;-66
2023/09/20 10:24:54;;;;;;;2.40;0.82;;;23.10;99.90;;;;;;5044304;28;20099;-65
2023/09/20 10:27:27;;;;;;;3.10;0.70;;;23.40;99.90;;;;;;5023451;28;20132;-66
2023/09/20 10:30:00;;;;;;;1.80;0.90;;;23.60;99.90;;;;;;5044273;28;20094;-65
2023/09/20 10:32:54;;;;;;;1.65;0.88;;;23.50;99.90;;;;;;5044660;28;20032;-66
2023/09/20 10:35:27;;;;;;;2.08;0.98;;;23.30;99.90;;;;;;5042226;28;20078;-66
2023/09/20 10:40:45;;;;;;;3.58;1.02;;;24.00;99.90;;;;;;5040903;28;20051;-65
2023/09/20 10:43:12;;;;;;;6.10;0.77;;;24.10;99.80;;;;;;5041148;28;20032;-65
2023/09/20 10:45:39;;;;;;;3.13;1.15;;;24.20;97.60;;;;;;5041651;28;20505;-66
2023/09/20 10:48:12;;;;;;;2.47;0.70;;;24.00;96.90;;;;;;5037377;28;20116;-65
2023/09/20 10:50:59;;;;;;;1.70;0.80;;;24.20;98.50;;;;;;5040578;28;20581;-66
2023/09/20 10:53:52;;;;;;;1.00;0.68;;;24.20;98.20;;;;;;5044860;28;20533;-66
2023/09/20 10:56:53;;;;;;;5.00;0.90;;;24.20;97.80;;;;;;5044832;28;20075;-66
2023/09/20 10:59:25;;;;;;;2.70;0.90;;;23.90;97.30;;;;;;5042672;28;20529;-65
2023/09/20 11:01:58;;;;;;;2.45;0.95;;;24.10;98.10;;;;;;5043880;28;20033;-66
2023/09/20 11:04:24;;;;;;;4.88;0.95;;;24.30;98.00;;;;;;5044211;28;20060;-66
2023/09/20 11:06:55;;;;;;;2.00;0.93;;;24.40;97.40;;;;;;5041452;28;20058;-66
2023/09/20 11:09:23;;;;;;;4.78;1.65;;;24.90;97.10;;;;;;5044032;28;20059;-66
2023/09/20 11:11:50;;;;;;;1.17;0.85;;;25.00;96.80;;;;;;5043107;28;20589;-66
2023/09/20 11:14:17;;;;;;;2.80;0.73;;;24.60;96.40;;;;;;5040443;28;20091;-66
2023/09/20 11:16:43;;;;;;;4.22;0.90;;;24.10;97.50;;;;;;5040588;28;20367;-66
2023/09/20 11:19:11;;;;;;;3.35;1.00;;;23.90;98.10;;;;;;5041502;28;20027;-66
2023/09/20 11:21:38;;;;;;;1.98;1.00;;;23.50;98.20;;;;;;5040995;28;20033;-66
2023/09/20 11:24:06;;;;;;;10.38;0.80;;;23.50;98.40;;;;;;5042747;28;20037;-66
2023/09/20 11:26:31;;;;;;;2.13;0.90;;;23.50;98.80;;;;;;5015505;28;20038;-66
2023/09/20 11:28:57;;;;;;;2.33;1.08;;;23.40;98.50;;;;;;5042419;28;20542;-67
2023/09/20 11:31:27;;;;;;;4.07;1.40;;;23.50;98.30;;;;;;5040791;28;20021;-65
2023/09/20 11:34:12;;;;;;;1.77;0.93;;;23.60;99.20;;;;;;5041170;28;20036;-66
2023/09/20 11:36:45;;;;;;;2.95;1.00;;;24.40;98.60;;;;;;5041543;28;20021;-66
2023/09/20 11:39:22;;;;;;;2.60;1.20;;;24.80;99.20;;;;;;5043179;28;20029;-66
2023/09/20 11:41:48;;;;;;;5.13;1.30;;;24.60;97.00;;;;;;5042174;28;20025;-65
2023/09/20 11:44:17;;;;;;;4.85;1.10;;;24.70;96.90;;;;;;5042525;28;20040;-65
2023/09/20 11:46:47;;;;;;;2.83;0.82;;;24.90;96.30;;;;;;5040522;28;20047;-66
2023/09/20 11:49:13;;;;;;;1.42;0.73;;;24.70;97.10;;;;;;5039618;28;20070;-66
2023/09/20 11:51:41;;;;;;;1.27;0.77;;;24.60;96.60;;;;;;5038220;28;20551;-66
2023/09/20 11:54:10;;;;;;;2.42;1.00;;;24.60;97.20;;;;;;5039221;28;20402;-66
2023/09/20 11:56:36;;;;;;;5.72;1.25;;;24.70;97.30;;;;;;5039621;28;20049;-66
2023/09/20 11:59:06;;;;;;;2.00;0.80;;;24.50;97.20;;;;;;5043942;28;20065;-65
2023/09/20 12:01:36;;;;;;;1.88;0.90;;;24.60;97.10;;;;;;5044602;28;20029;-65
2023/09/20 12:04:03;;;;;;;3.72;0.90;;;24.20;97.00;;;;;;5043199;28;20116;-66
2023/09/20 12:06:29;;;;;;;1.95;0.75;;;24.20;97.70;;;;;;5042258;28;20029;-66
2023/09/20 12:08:55;;;;;;;2.15;0.93;;;24.20;97.90;;;;;;5041657;28;20055;-66
2023/09/20 12:11:22;;;;;;;2.33;0.90;;;24.20;97.50;;;;;;5044791;28;20024;-66
2023/09/20 12:13:48;;;;;;;3.72;0.93;;;24.20;97.50;;;;;;5046809;28;20086;-65
2023/09/20 12:16:16;;;;;;;2.28;1.23;;;24.10;97.50;;;;;;5045400;28;20040;-66
2023/09/20 12:18:42;;;;;;;3.40;1.00;;;23.90;97.80;;;;;;5047278;28;20032;-65
2023/09/20 12:21:08;;;;;;;6.15;0.98;;;23.80;97.80;;;;;;5045092;28;20029;-65
2023/09/20 12:23:41;;;;;;;6.25;1.30;;;23.80;97.20;;;;;;5044144;28;20103;-65
2023/09/20 12:26:12;;;;;;;3.97;1.23;;;23.90;98.10;;;;;;5046349;28;20033;-66
2023/09/20 12:28:38;;;;;;;2.95;0.90;;;23.90;96.30;;;;;;5021775;28;20041;-64
2023/09/20 12:31:04;;;;;;;3.22;0.95;;;23.90;96.90;;;;;;5047083;28;20102;-66
2023/09/20 12:33:30;;;;;;;5.80;1.20;;;23.70;96.60;;;;;;5047233;28;20064;-65
2023/09/20 12:35:57;;;;;;;3.63;0.85;;;23.70;96.30;;;;;;5046017;28;21210;-66
2023/09/20 12:38:23;;;;;;;4.55;1.30;;;23.50;97.70;;;;;;5056618;28;20025;-66
2023/09/20 12:40:49;;;;;;;2.97;1.00;;;23.50;97.00;;;;;;5046004;28;20036;-65
2023/09/20 12:43:18;;;;;;;1.63;0.88;;;23.40;96.90;;;;;;5047172;28;20029;-66
2023/09/20 12:45:44;;;;;;;5.50;1.35;;;23.30;97.70;;;;;;5046451;28;20033;-64
2023/09/20 12:48:13;;;;;;;2.17;1.10;;;23.30;98.00;;;;;;5046528;28;20033;-64
2023/09/20 12:50:38;;;;;;;3.10;1.08;;;23.40;98.00;;;;;;5044433;28;20700;-65
2023/09/20 12:53:08;;;;;;;8.55;1.17;;;23.60;97.60;;;;;;5047252;28;20133;-66
2023/09/20 12:55:37;;;;;;;2.72;1.05;;;23.40;97.50;;;;;;5046251;28;20094;-65
2023/09/20 12:58:07;;;;;;;2.20;1.23;;;23.40;97.20;;;;;;5046132;28;20522;-66
2023/09/20 13:00:37;;;;;;;2.65;0.80;;;23.30;96.90;;;;;;5046793;28;20051;-66
2023/09/20 13:03:06;;;;;;;3.88;1.30;;;23.20;97.10;;;;;;5044254;28;20035;-65
2023/09/20 13:05:32;;;;;;;1.35;0.98;;;23.00;97.30;;;;;;5061588;28;20036;-65
2023/09/20 13:07:59;;;;;;;4.70;1.38;;;23.00;97.00;;;;;;5045172;28;20033;-66
2023/09/20 13:10:26;;;;;;;2.35;1.40;;;22.90;97.20;;;;;;5045374;28;20074;-65
2023/09/20 13:12:52;;;;;;;1.50;1.00;;;22.90;97.40;;;;;;5046918;28;20053;-64
2023/09/20 13:15:19;;;;;;;2.95;1.02;;;23.00;97.80;;;;;;5045094;28;20029;-65
2023/09/20 13:17:48;;;;;;;2.65;1.10;;;23.00;97.60;;;;;;5045416;28;20029;-66
2023/09/20 13:20:15;;;;;;;3.58;1.15;;;22.90;97.70;;;;;;5042858;28;20021;-65
2023/09/20 13:22:42;;;;;;;3.72;2.05;;;22.90;98.20;;;;;;5045056;28;20025;-66
2023/09/20 13:25:19;;;;;;;3.42;1.13;;;22.90;97.80;;;;;;5044745;28;20033;-65
2023/09/20 13:27:45;;;;;;;3.28;1.02;;;22.90;97.90;;;;;;5024342;28;20032;-66
2023/09/20 13:30:12;;;;;;;1.08;0.77;;;22.90;97.80;;;;;;5046635;28;20070;-65
2023/09/20 13:32:41;;;;;;;3.03;1.00;;;22.90;98.30;;;;;;5045271;28;20055;-66